createdAt,value
2022-10-26T04:05:04.973Z,100947.06
2022-10-26T04:08:08.631Z,100939.69
2022-10-26T04:11:11.365Z,100939.56
2022-10-26T04:14:14.478Z,100941.13
2022-10-26T04:17:17.082Z,100938.84
2022-10-26T04:20:19.852Z,100942.19
2022-10-26T04:23:22.480Z,100936.69
2022-10-26T04:26:25.320Z,100942.91
2022-10-26T04:29:27.825Z,100938.06
2022-10-26T04:32:30.568Z,100945.44
2022-10-26T04:35:33.320Z,100940.94
2022-10-26T04:38:36.356Z,100939.06
2022-10-26T04:41:38.865Z,100941.34
2022-10-26T04:44:41.636Z,100941.22
2022-10-26T04:47:44.173Z,100950.50
2022-10-26T04:50:47.532Z,100952.50
2022-10-26T04:53:50.118Z,100950.50
2022-10-26T04:56:52.835Z,100948.13
2022-10-26T05:00:00.520Z,100941.34
2022-10-26T05:03:05.525Z,100949.41
2022-10-26T05:06:08.053Z,100947.56
2022-10-26T05:09:11.033Z,100945.03
2022-10-26T05:12:13.491Z,100943.06
2022-10-26T05:15:16.207Z,100949.41
2022-10-26T05:18:18.814Z,100946.88
2022-10-26T05:21:21.631Z,100953.38
2022-10-26T05:24:24.185Z,100955.66
2022-10-26T05:27:26.979Z,100959.19
2022-10-26T05:30:30.410Z,100971.50
2022-10-26T05:33:33.121Z,100973.66
2022-10-26T05:36:35.544Z,100972.78
2022-10-26T05:39:38.477Z,100974.62
2022-10-26T05:42:40.955Z,100972.69
2022-10-26T05:45:43.894Z,100978.59
2022-10-26T05:48:46.463Z,100974.50
2022-10-26T05:51:49.262Z,100974.38
2022-10-26T05:54:51.889Z,100982.53
2022-10-26T05:57:55.237Z,100985.09
2022-10-26T06:01:18.228Z,100979.97
2022-10-26T06:04:33.255Z,100985.59
2022-10-26T06:07:36.053Z,100991.53
2022-10-26T06:10:39.454Z,100991.62
2022-10-26T06:13:42.169Z,100994.56
2022-10-26T06:17:01.872Z,100993.41
2022-10-26T06:20:39.631Z,100997.59
2022-10-26T06:24:11.628Z,101001.16
2022-10-26T06:27:38.898Z,101014.69
2022-10-26T06:30:42.037Z,101011.69
2022-10-26T06:33:44.809Z,101007.09
2022-10-26T06:36:49.849Z,101013.44
2022-10-26T06:39:54.797Z,101007.19
2022-10-26T06:43:00.651Z,101006.97
2022-10-26T06:59:48.457Z,101026.84
2022-10-26T07:02:51.819Z,101026.84
2022-10-26T07:05:54.934Z,101020.22
2022-10-26T07:08:57.690Z,101022.25
2022-10-26T07:12:00.372Z,101024.16
2022-10-26T07:15:03.993Z,101024.66
2022-10-26T07:18:07.983Z,101018.59
2022-10-26T07:21:10.713Z,101024.66
2022-10-26T07:24:13.109Z,101019.94
2022-10-26T07:27:16.381Z,101020.28
2022-10-26T07:30:18.975Z,101018.41
2022-10-26T07:33:21.893Z,101026.63
2022-10-26T07:36:24.474Z,101025.84
2022-10-26T07:39:27.700Z,101027.88
2022-10-26T07:42:30.180Z,101022.25
2022-10-26T07:45:33.355Z,101027.44
2022-10-26T07:48:35.801Z,101031.75
2022-10-26T07:51:38.616Z,101029.78
2022-10-26T07:54:41.303Z,101037.28
2022-10-26T07:57:44.127Z,101034.22
2022-10-26T08:00:46.725Z,101031.72
2022-10-26T08:03:53.483Z,101017.84
2022-10-26T08:06:55.897Z,101021.44
2022-10-26T08:09:58.669Z,101028.50
2022-10-26T08:13:01.093Z,101017.69
2022-10-26T08:16:05.545Z,101019.97
2022-10-26T08:19:08.117Z,101021.03
2022-10-26T08:22:10.913Z,101016.94
2022-10-26T08:25:16.353Z,101011.03
2022-10-26T08:28:21.751Z,101017.78
2022-10-26T08:31:24.388Z,101020.66
2022-10-26T08:34:27.188Z,101026.56
2022-10-26T08:37:29.893Z,101024.84
2022-10-26T08:40:36.801Z,101030.72
2022-10-26T08:43:54.719Z,101028.47
2022-10-26T08:47:14.243Z,101030.00
2022-10-26T08:50:25.365Z,101021.66
2022-10-26T08:53:41.618Z,101020.59
2022-10-26T08:56:52.927Z,101021.31
2022-10-26T09:00:06.556Z,101027.13
2022-10-26T09:03:14.427Z,101027.19
2022-10-26T09:06:44.893Z,101032.97
2022-10-26T09:09:59.827Z,101035.22
2022-10-26T09:13:14.752Z,101039.63
2022-10-26T09:16:23.224Z,101043.69
2022-10-26T09:19:34.939Z,101038.31
2022-10-26T09:22:52.527Z,101030.16
2022-10-26T09:26:00.554Z,101041.47
2022-10-26T09:29:06.812Z,101041.00
2022-10-26T09:32:21.388Z,101044.44
2022-10-26T09:35:33.971Z,101048.22
2022-10-26T09:38:55.907Z,101048.88
2022-10-26T09:42:22.290Z,101047.69
2022-10-26T09:45:35.898Z,101049.19
2022-10-26T09:48:45.364Z,101056.34
2022-10-26T09:51:48.890Z,101050.81
2022-10-26T09:54:51.359Z,101048.44
2022-10-26T09:57:57.312Z,101057.37
2022-10-26T10:01:00.028Z,101056.91
2022-10-26T10:04:20.153Z,101053.63
2022-10-26T10:07:22.586Z,101055.03
2022-10-26T10:10:25.208Z,101056.19
2022-10-26T10:13:33.397Z,101053.28
2022-10-26T10:16:36.438Z,101060.03
2022-10-26T10:19:39.394Z,101058.53
2022-10-26T10:22:54.480Z,101066.34
2022-10-26T10:26:13.304Z,101061.16
2022-10-26T10:29:16.413Z,101069.88
2022-10-26T10:32:21.318Z,101065.75
2022-10-26T10:35:29.545Z,101069.62
2022-10-26T10:38:38.756Z,101058.16
2022-10-26T10:41:45.184Z,101061.03
2022-10-26T10:44:53.220Z,101056.91
2022-10-26T10:48:04.023Z,101054.88
2022-10-26T10:51:12.544Z,101052.19
2022-10-26T10:54:25.456Z,101046.09
2022-10-26T10:57:39.521Z,101053.41
2022-10-26T11:00:48.299Z,101050.84
2022-10-26T11:04:20.705Z,101048.62
2022-10-26T11:07:25.958Z,101053.03
2022-10-26T11:10:34.327Z,101045.06
2022-10-26T11:13:41.620Z,101052.31
2022-10-26T11:16:49.050Z,101052.72
2022-10-26T11:19:59.647Z,101041.25
2022-10-26T11:23:26.121Z,101044.25
2022-10-26T11:26:35.547Z,101042.81
2022-10-26T11:29:55.143Z,101047.19
2022-10-26T11:33:20.935Z,101033.78
2022-10-26T11:36:25.181Z,101033.97
2022-10-26T11:39:46.434Z,101033.41
2022-10-26T11:42:57.890Z,101037.63
2022-10-26T11:46:22.121Z,101029.69
2022-10-26T11:49:42.206Z,101023.69
2022-10-26T11:52:52.819Z,101034.97
2022-10-26T11:55:57.560Z,101019.22
2022-10-26T12:02:25.175Z,101020.88
2022-10-26T12:05:40.295Z,101022.09
2022-10-26T12:08:48.480Z,101029.06
2022-10-26T12:12:06.415Z,101027.78
2022-10-26T12:15:18.206Z,101026.72
2022-10-26T12:18:36.865Z,101026.31
2022-10-26T12:21:44.266Z,101020.91
2022-10-26T12:25:24.723Z,101027.37
2022-10-26T12:28:36.304Z,101024.41
2022-10-26T12:31:38.972Z,101025.91
2022-10-26T12:34:41.291Z,101024.81
2022-10-26T12:37:43.997Z,101023.47
2022-10-26T12:40:46.609Z,101016.81
2022-10-26T12:43:49.915Z,101020.59
2022-10-26T12:46:52.409Z,101019.91
2022-10-26T12:50:18.552Z,101011.38
2022-10-26T12:53:22.304Z,101011.53
2022-10-26T12:56:35.736Z,101007.78
2022-10-26T12:59:58.133Z,101007.94
2022-10-26T13:03:21.514Z,101002.75
2022-10-26T13:06:49.771Z,101012.31
2022-10-26T13:09:58.102Z,101004.75
2022-10-26T13:13:02.881Z,101018.25
2022-10-26T13:16:11.140Z,101014.50
2022-10-26T13:19:42.413Z,101013.66
2022-10-26T13:22:47.930Z,101013.25
2022-10-26T13:26:12.816Z,101008.25
2022-10-26T13:29:16.080Z,101013.25
2022-10-26T13:32:18.987Z,101008.66
2022-10-26T13:35:24.558Z,101009.09
2022-10-26T13:38:32.488Z,101012.69
2022-10-26T13:41:38.975Z,101018.16
2022-10-26T13:45:06.685Z,101018.16
2022-10-26T13:48:20.451Z,101019.19
2022-10-26T13:51:26.230Z,101013.75
2022-10-26T13:54:46.299Z,101014.97
2022-10-26T13:58:19.656Z,101015.59
2022-10-26T14:01:25.896Z,101012.66
2022-10-26T14:04:29.132Z,101012.59
2022-10-26T14:07:37.616Z,101015.31
2022-10-26T14:10:43.245Z,101025.78
2022-10-26T14:13:48.808Z,101024.47
2022-10-26T14:16:53.553Z,101024.63
2022-10-26T14:19:56.927Z,101027.78
2022-10-26T14:22:59.588Z,101026.75
2022-10-26T14:26:03.112Z,101019.84
2022-10-26T14:29:17.379Z,101022.53
2022-10-26T14:32:33.509Z,101023.94
2022-10-26T14:35:37.618Z,101019.00
2022-10-26T14:38:45.600Z,101024.59
2022-10-26T14:41:50.559Z,101023.75
2022-10-26T14:44:53.234Z,101023.72
2022-10-26T14:47:56.828Z,101019.31
2022-10-26T14:50:59.701Z,101021.78
2022-10-26T14:54:03.846Z,101022.59
2022-10-26T14:57:36.719Z,101024.47
2022-10-26T15:00:40.430Z,101028.00
2022-10-26T15:03:51.149Z,101028.59
2022-10-26T15:07:02.644Z,101025.03
2022-10-26T15:10:06.156Z,101029.81
2022-10-26T15:13:33.667Z,101026.47
2022-10-26T15:16:36.272Z,101027.88
2022-10-26T15:19:40.053Z,101021.16
2022-10-26T15:22:54.069Z,101025.94
2022-10-26T15:26:01.556Z,101027.56
2022-10-26T15:29:04.058Z,101033.41
2022-10-26T15:32:31.338Z,101037.75
2022-10-26T15:35:33.893Z,101038.31
2022-10-26T15:38:36.894Z,101041.81
2022-10-26T15:41:46.921Z,101041.59
2022-10-26T15:44:53.124Z,101044.44
2022-10-26T15:47:58.949Z,101048.19
2022-10-26T15:51:01.853Z,101053.22
2022-10-26T15:54:05.215Z,101060.91
